Time;durP1;ratioP1;P1;durP2;ratioP2;P2;SDS_P1;SDS_P2;PMS_P1;PMS_P2;Temp;Humidity;BMP_temperature;BMP_pressure;BME280_temperature;BME280_humidity;BME280_pressure;Samples;Min_cycle;Max_cycle;Signal;HPM_P1;HPM_P2
2023/06/01 00:00:14;;;;;;;17.25;4.05;;;;;;;9.05;53.32;102419.69;5040466;28;20043;-75
2023/06/01 00:02:41;;;;;;;10.90;2.92;;;;;;;9.25;52.76;102411.66;5052265;28;20225;-73
2023/06/01 00:05:07;;;;;;;5.03;3.45;;;;;;;8.94;53.66;102419.81;5045278;28;20036;-73
2023/06/01 00:07:32;;;;;;;13.07;2.70;;;;;;;9.04;53.31;102424.94;5053628;27;20052;-73
2023/06/01 00:10:00;;;;;;;10.45;2.60;;;;;;;9.12;53.07;102415.28;5054565;28;20479;-74
2023/06/01 00:12:25;;;;;;;11.15;2.25;;;;;;;9.25;53.07;102416.88;5054013;28;20501;-74
2023/06/01 00:14:51;;;;;;;7.80;2.08;;;;;;;9.37;52.63;102411.56;5080909;27;20038;-72
2023/06/01 00:17:17;;;;;;;7.85;2.10;;;;;;;9.43;52.26;102417.59;5070658;27;20044;-71
2023/06/01 00:19:44;;;;;;;10.88;2.25;;;;;;;9.52;52.52;102418.38;5072225;28;20060;-71
2023/06/01 00:22:10;;;;;;;10.73;1.85;;;;;;;9.45;52.90;102415.81;5068777;27;20142;-71
2023/06/01 00:24:36;;;;;;;5.40;2.22;;;;;;;9.66;52.34;102414.75;5070609;28;20027;-72
2023/06/01 00:27:02;;;;;;;15.32;1.73;;;;;;;9.56;52.73;102411.34;5063277;28;20657;-71
2023/06/01 00:29:29;;;;;;;14.32;2.15;;;;;;;9.67;52.36;102414.72;5071318;28;20093;-71
2023/06/01 00:31:54;;;;;;;6.18;2.33;;;;;;;9.73;52.14;102404.19;5070506;28;20042;-74
2023/06/01 00:34:20;;;;;;;7.75;1.42;;;;;;;9.75;52.13;102402.44;5049423;27;20048;-75
2023/06/01 00:36:45;;;;;;;5.45;2.10;;;;;;;9.59;52.42;102403.50;5052711;28;20075;-77
2023/06/01 00:39:11;;;;;;;10.27;2.20;;;;;;;9.78;52.03;102399.78;5069309;28;20040;-76
2023/06/01 00:41:37;;;;;;;10.10;2.20;;;;;;;9.71;52.03;102405.09;5071143;28;20036;-76
2023/06/01 00:44:02;;;;;;;7.90;1.80;;;;;;;9.90;51.50;102405.75;5103642;27;20051;-76
2023/06/01 00:46:30;;;;;;;7.68;2.60;;;;;;;9.73;52.03;102398.97;5072702;28;20039;-76
2023/06/01 00:48:56;;;;;;;12.32;2.03;;;;;;;9.68;52.15;102399.91;5070108;27;20044;-76
2023/06/01 00:51:22;;;;;;;12.00;2.08;;;;;;;9.49;52.26;102400.13;5075246;28;20400;-76
2023/06/01 00:53:48;;;;;;;4.57;1.55;;;;;;;9.56;52.25;102400.91;5059762;27;20039;-76
2023/06/01 00:56:13;;;;;;;5.68;1.83;;;;;;;9.72;51.93;102402.47;5077120;28;20050;-75
2023/06/01 00:58:39;;;;;;;4.47;1.33;;;;;;;9.16;53.08;102393.50;5070958;27;20036;-75
2023/06/01 01:01:05;;;;;;;9.43;1.35;;;;;;;9.60;51.85;102386.94;5076204;28;20039;-76
2023/06/01 01:03:34;;;;;;;7.28;2.65;;;;;;;9.77;51.91;102390.22;5071507;27;20047;-74
2023/06/01 01:06:22;;;;;;;8.55;2.33;;;;;;;9.90;51.54;102395.31;5072889;28;20145;-75
2023/06/01 01:09:07;;;;;;;7.95;1.80;;;;;;;9.88;52.33;102397.97;5087494;27;20131;-74
2023/06/01 01:11:37;;;;;;;7.65;1.67;;;;;;;9.39;53.25;102394.16;5073394;28;20028;-75
2023/06/01 01:14:15;;;;;;;9.27;2.38;;;;;;;9.11;54.16;102387.47;5086337;27;20047;-75
2023/06/01 01:17:02;;;;;;;6.13;1.90;;;;;;;9.12;54.21;102389.19;5086473;27;20032;-75
2023/06/01 01:19:53;;;;;;;5.30;1.33;;;;;;;9.48;53.48;102392.31;5078761;27;20044;-67
2023/06/01 01:22:31;;;;;;;6.53;1.70;;;;;;;9.02;54.43;102387.56;5072203;27;20028;-68
2023/06/01 01:24:56;;;;;;;8.43;1.88;;;;;;;9.04;54.06;102380.59;5060031;28;20028;-66
2023/06/01 01:27:59;;;;;;;7.13;2.50;;;;;;;9.43;53.92;102384.53;5061208;27;20044;-66
2023/06/01 01:30:27;;;;;;;7.25;2.38;;;;;;;9.41;53.62;102381.09;5073044;28;20039;-68
2023/06/01 01:32:55;;;;;;;7.82;1.80;;;;;;;8.56;55.85;102374.03;5089241;27;20116;-68
2023/06/01 01:35:26;;;;;;;6.97;1.75;;;;;;;9.08;54.60;102372.72;5070624;28;20036;-68
2023/06/01 01:37:53;;;;;;;11.65;2.53;;;;;;;9.37;53.58;102375.03;5062634;28;20040;-68
2023/06/01 01:40:19;;;;;;;8.13;1.80;;;;;;;9.36;53.43;102373.28;5080889;27;20037;-67
2023/06/01 01:42:46;;;;;;;10.35;2.55;;;;;;;9.19;53.74;102370.00;5041788;28;20134;-68
2023/06/01 01:45:12;;;;;;;6.80;1.80;;;;;;;8.89;54.40;102366.81;5061321;28;20043;-68
2023/06/01 01:47:54;;;;;;;8.35;2.42;;;;;;;9.29;53.62;102368.16;5069298;27;20041;-68
2023/06/01 01:50:24;;;;;;;6.05;1.65;;;;;;;9.21;53.81;102373.47;5047960;28;20056;-68
2023/06/01 01:52:52;;;;;;;9.60;2.83;;;;;;;8.96;54.17;102363.28;5094419;27;20174;-68
2023/06/01 01:55:18;;;;;;;8.45;2.33;;;;;;;9.13;53.65;102370.06;5074193;27;20047;-68
2023/06/01 01:57:45;;;;;;;7.05;1.73;;;;;;;9.17;53.64;102363.94;5074199;27;20634;-68
2023/06/01 02:00:12;;;;;;;16.85;2.30;;;;;;;9.38;53.52;102363.69;5076570;28;20320;-73
2023/06/01 02:02:45;;;;;;;6.72;2.10;;;;;;;8.97;54.05;102359.78;5059180;28;20048;-73
2023/06/01 02:05:10;;;;;;;6.40;2.03;;;;;;;9.39;52.99;102351.53;5071976;28;20043;-73
2023/06/01 02:07:36;;;;;;;10.63;1.83;;;;;;;9.11;53.40;102362.25;5055613;27;20130;-73
2023/06/01 02:10:04;;;;;;;6.60;1.63;;;;;;;8.84;54.40;102357.31;5075579;28;20032;-73
2023/06/01 02:12:30;;;;;;;7.03;2.33;;;;;;;9.21;53.36;102362.16;5058493;28;20036;-73
2023/06/01 02:14:56;;;;;;;6.45;2.28;;;;;;;9.10;53.62;102362.28;5052229;28;20035;-75
2023/06/01 02:17:21;;;;;;;11.45;2.30;;;;;;;9.00;54.40;102360.63;5056594;28;20620;-74
2023/06/01 02:19:47;;;;;;;6.10;2.35;;;;;;;8.51;55.59;102352.31;5082218;28;20020;-73
2023/06/01 02:22:13;;;;;;;8.48;1.95;;;;;;;9.22;53.94;102348.25;5093063;27;21029;-73
2023/06/01 02:24:39;;;;;;;10.05;2.10;;;;;;;9.37;53.15;102343.72;5074694;28;20039;-73
2023/06/01 02:27:05;;;;;;;11.05;2.35;;;;;;;9.43;52.92;102347.13;5095731;27;20056;-75
2023/06/01 02:29:32;;;;;;;7.82;2.15;;;;;;;9.34;53.24;102348.97;5076769;28;20138;-72
2023/06/01 02:31:58;;;;;;;8.13;2.22;;;;;;;9.57;53.42;102346.09;5076872;28;20422;-73
2023/06/01 02:34:24;;;;;;;5.82;1.70;;;;;;;9.64;52.70;102349.50;5071156;27;20043;-74
2023/06/01 02:36:50;;;;;;;6.75;1.92;;;;;;;9.62;52.29;102348.63;5077955;27;20442;-74
2023/06/01 02:39:17;;;;;;;8.35;2.50;;;;;;;9.49;52.28;102342.69;5033642;28;20048;-71
2023/06/01 02:41:42;;;;;;;5.05;2.03;;;;;;;9.57;52.43;102347.84;5075015;28;20101;-71
2023/06/01 02:44:08;;;;;;;7.05;2.40;;;;;;;9.40;52.88;102343.66;5072305;28;20035;-75
2023/06/01 02:46:34;;;;;;;4.28;1.75;;;;;;;9.49;52.62;102339.22;5063598;28;20039;-78
2023/06/01 02:49:00;;;;;;;10.15;1.85;;;;;;;9.55;52.29;102345.25;5044899;28;20064;-76
2023/06/01 02:51:26;;;;;;;14.18;2.60;;;;;;;9.40;52.84;102343.66;5055996;28;20092;-76
2023/06/01 02:54:02;;;;;;;9.82;2.30;;;;;;;9.20;53.52;102335.22;5072091;28;20529;-77
2023/06/01 02:56:28;;;;;;;12.18;1.88;;;;;;;9.33;53.51;102341.16;5073179;28;20602;-74
2023/06/01 02:59:14;;;;;;;9.52;2.47;;;;;;;9.57;52.75;102340.00;5055475;28;20728;-75
2023/06/01 03:01:46;;;;;;;;;;;;;;;9.37;53.07;102343.72;5046567;28;20128;-76
2023/06/01 03:04:12;;;;;;;7.55;2.92;;;;;;;9.33;53.47;102346.38;5082171;27;19920;-74
2023/06/01 03:06:40;;;;;;;12.95;2.90;;;;;;;9.38;53.12;102345.44;5086667;27;20094;-74
2023/06/01 03:09:12;;;;;;;7.47;2.50;;;;;;;9.45;53.04;102335.78;5070737;28;20032;-76
2023/06/01 03:11:50;;;;;;;6.03;1.52;;;;;;;9.14;53.80;102335.25;5074863;28;20036;-75
2023/06/01 03:14:16;;;;;;;9.57;2.47;;;;;;;8.94;54.28;102331.13;5068635;27;20051;-74
2023/06/01 03:16:41;;;;;;;4.85;1.20;;;;;;;9.08;54.26;102330.13;5066820;28;20076;-74
2023/06/01 03:19:15;;;;;;;10.63;3.33;;;;;;;8.96;54.71;102325.88;5071767;27;20328;-74
2023/06/01 03:21:42;;;;;;;7.10;2.28;;;;;;;8.87;55.46;102321.63;5068260;28;20295;-74
2023/06/01 03:24:08;;;;;;;10.63;2.22;;;;;;;9.16;55.05;102328.28;5062578;28;20823;-74
2023/06/01 03:26:33;;;;;;;6.63;2.08;;;;;;;9.27;54.44;102321.22;5066451;28;20036;-75
2023/06/01 03:28:59;;;;;;;12.73;2.80;;;;;;;9.30;54.40;102320.34;5055758;28;20194;-74
2023/06/01 03:31:26;;;;;;;14.73;3.60;;;;;;;9.44;54.70;102314.94;5073451;28;20043;-76
2023/06/01 03:33:54;;;;;;;4.88;2.45;;;;;;;9.44;54.76;102318.41;5075330;27;20031;-74
2023/06/01 03:36:20;;;;;;;6.95;2.25;;;;;;;9.00;55.79;102316.31;5082932;27;20035;-71
2023/06/01 03:38:46;;;;;;;10.65;2.42;;;;;;;9.19;55.84;102312.63;5057310;27;20092;-72
2023/06/01 03:41:12;;;;;;;7.13;2.33;;;;;;;9.41;55.73;102313.25;5071748;28;20089;-73
2023/06/01 03:43:37;;;;;;;6.82;1.58;;;;;;;8.80;56.62;102309.53;5055549;27;20043;-74
2023/06/01 03:46:03;;;;;;;8.85;1.83;;;;;;;8.85;56.60;102309.47;5053639;28;20147;-72
2023/06/01 03:48:28;;;;;;;3.83;1.25;;;;;;;8.92;56.64;102300.75;5049778;28;20159;-73
2023/06/01 03:50:55;;;;;;;4.35;1.30;;;;;;;9.31;55.78;102304.63;5039220;28;20561;-74
2023/06/01 03:53:22;;;;;;;6.38;1.42;;;;;;;9.25;55.69;102302.09;5062321;28;20135;-73
2023/06/01 03:55:48;;;;;;;6.18;1.17;;;;;;;9.17;56.04;102298.72;5075434;27;20050;-72
2023/06/01 03:58:28;;;;;;;3.05;1.00;;;;;;;9.02;56.56;102309.31;5059949;27;20040;-72
2023/06/01 04:00:54;;;;;;;5.03;0.73;;;;;;;8.69;57.44;102307.00;5037804;28;20103;-75
2023/06/01 04:03:22;;;;;;;2.85;1.05;;;;;;;9.15;56.36;102309.16;5068254;28;20043;-76
2023/06/01 04:05:50;;;;;;;5.80;0.98;;;;;;;9.25;55.82;102309.06;5058697;28;20442;-74
2023/06/01 04:08:17;;;;;;;4.07;0.57;;;;;;;9.32;55.85;102306.38;5051479;27;20048;-76
2023/06/01 04:10:42;;;;;;;2.53;0.82;;;;;;;8.93;56.63;102305.06;5039527;28;20104;-68
2023/06/01 04:13:09;;;;;;;5.20;0.80;;;;;;;8.87;57.03;102305.13;5055570;27;20036;-71
2023/06/01 04:15:34;;;;;;;9.32;1.33;;;;;;;9.02;56.68;102299.75;5066251;28;20425;-71
2023/06/01 04:18:01;;;;;;;4.65;1.00;;;;;;;9.14;56.46;102299.63;5050437;28;20033;-70
2023/06/01 04:20:35;;;;;;;7.60;0.95;;;;;;;9.28;56.61;102299.47;5068161;27;20031;-73
2023/06/01 04:23:00;;;;;;;7.10;0.68;;;;;;;9.00;56.88;102303.25;5059114;27;20039;-72
2023/06/01 04:25:28;;;;;;;5.78;0.90;;;;;;;9.09;56.97;102295.34;5035030;28;20791;-72
2023/06/01 04:27:54;;;;;;;2.08;1.00;;;;;;;9.21;56.96;102297.81;5068507;27;20071;-75
2023/06/01 04:30:22;;;;;;;4.22;1.05;;;;;;;9.12;56.79;102301.41;5058382;28;20032;-77
2023/06/01 04:32:48;;;;;;;9.32;1.27;;;;;;;9.21;57.04;102294.31;5053771;28;20067;-72
2023/06/01 04:35:14;;;;;;;5.22;1.00;;;;;;;8.84;57.85;102295.59;5034797;28;20032;-76
2023/06/01 04:37:41;;;;;;;4.18;1.00;;;;;;;8.91;57.69;102292.03;5062209;27;20098;-76
2023/06/01 04:40:09;;;;;;;4.40;1.17;;;;;;;8.86;57.84;102290.38;5065753;28;20028;-75
2023/06/01 04:42:42;;;;;;;5.93;1.52;;;;;;;9.03;57.40;102290.19;5055282;28;20069;-75
2023/06/01 04:45:10;;;;;;;3.65;0.82;;;;;;;8.98;57.07;102293.72;5080776;27;20111;-76
2023/06/01 04:47:39;;;;;;;4.18;1.05;;;;;;;9.08;57.19;102291.00;5077553;27;20043;-77
2023/06/01 04:50:10;;;;;;;5.32;1.60;;;;;;;9.05;57.03;102294.50;5073619;28;20096;-77
2023/06/01 04:52:40;;;;;;;5.13;1.45;;;;;;;8.97;57.29;102294.59;5060809;27;20036;-76
2023/06/01 04:55:07;;;;;;;5.82;0.93;;;;;;;9.05;57.26;102296.25;5069218;28;20059;-75
2023/06/01 04:57:36;;;;;;;4.78;1.77;;;;;;;9.11;56.74;102288.34;5061512;28;20056;-74
2023/06/01 05:00:06;;;;;;;4.20;1.40;;;;;;;8.88;56.93;102289.47;5087593;28;20540;-77
2023/06/01 05:02:33;;;;;;;10.02;1.90;;;;;;;9.26;55.55;102284.72;5068476;28;20048;-74
2023/06/01 05:04:59;;;;;;;9.52;2.22;;;;;;;9.07;55.97;102284.06;5078251;28;20114;-72
2023/06/01 05:07:24;;;;;;;6.28;1.63;;;;;;;9.40;55.02;102290.63;5054671;27;20063;-72
2023/06/01 05:09:51;;;;;;;7.07;1.50;;;;;;;9.23;55.49;102285.63;5066147;28;20173;-71
2023/06/01 05:12:16;;;;;;;4.47;1.20;;;;;;;9.01;55.50;102284.13;5072753;27;20917;-70
2023/06/01 05:14:42;;;;;;;6.85;1.40;;;;;;;9.28;55.24;102288.19;5070559;28;20036;-76
2023/06/01 05:17:08;;;;;;;5.55;1.50;;;;;;;9.25;55.21;102275.16;5074749;27;20519;-73
2023/06/01 05:19:33;;;;;;;9.80;1.50;;;;;;;9.09;55.38;102283.16;5056310;28;20024;-71
2023/06/01 05:21:59;;;;;;;4.57;2.63;;;;;;;8.83;56.13;102277.34;5056504;28;20034;-70
2023/06/01 05:24:24;;;;;;;7.55;2.50;;;;;;;9.14;55.70;102277.88;5057444;28;20037;-70
2023/06/01 05:26:50;;;;;;;3.83;1.55;;;;;;;9.18;55.15;102274.34;5053332;28;20654;-70
2023/06/01 05:29:16;;;;;;;12.73;1.55;;;;;;;8.92;55.37;102269.47;5057717;28;20057;-68
2023/06/01 05:31:41;;;;;;;4.78;1.00;;;;;;;9.07;54.32;102271.00;5050586;28;20032;-70
2023/06/01 05:34:07;;;;;;;9.75;1.42;;;;;;;9.36;53.71;102271.50;5055502;28;20043;-70
2023/06/01 05:36:32;;;;;;;4.55;1.00;;;;;;;9.30;53.06;102269.00;5052864;28;20560;-70
2023/06/01 05:38:59;;;;;;;2.15;1.00;;;;;;;8.79;53.65;102266.09;5068598;27;20135;-70
2023/06/01 05:41:25;;;;;;;5.22;1.25;;;;;;;9.31;52.89;102269.88;5055122;28;20124;-72
2023/06/01 05:43:52;;;;;;;4.00;1.13;;;;;;;9.14;52.50;102268.34;5052557;28;20043;-70
2023/06/01 05:46:18;;;;;;;6.28;1.13;;;;;;;9.15;52.37;102280.47;5077093;28;20072;-69
2023/06/01 05:48:44;;;;;;;4.70;0.82;;;;;;;9.43;51.54;102274.06;5066573;27;20048;-70
2023/06/01 05:51:12;;;;;;;6.05;0.80;;;;;;;9.33;51.21;102268.97;5079391;27;20035;-70
2023/06/01 05:53:37;;;;;;;7.20;1.00;;;;;;;9.75;50.42;102271.88;5081416;27;20723;-70
2023/06/01 05:56:03;;;;;;;6.18;0.90;;;;;;;9.75;50.46;102265.81;5058460;28;20466;-70
2023/06/01 05:58:29;;;;;;;9.00;2.38;;;;;;;9.78;50.51;102279.66;5051807;28;20050;-69
2023/06/01 06:00:56;;;;;;;9.23;1.00;;;;;;;9.68;50.44;102275.47;5061039;28;20496;-71
2023/06/01 06:03:22;;;;;;;11.65;1.45;;;;;;;9.03;51.51;102269.31;5070747;27;20075;-72
2023/06/01 06:05:49;;;;;;;8.13;0.50;;;;;;;9.48;50.30;102280.97;5072720;27;20729;-69
2023/06/01 06:08:14;;;;;;;11.07;1.08;;;;;;;9.67;50.50;102267.66;5071118;27;20046;-67
2023/06/01 06:10:41;;;;;;;5.97;0.98;;;;;;;9.92;50.32;102266.47;5070509;27;20027;-69
2023/06/01 06:13:07;;;;;;;5.82;1.13;;;;;;;9.74;50.81;102264.91;5071768;27;20121;-70
2023/06/01 06:15:32;;;;;;;5.47;1.35;;;;;;;9.54;50.38;102277.38;5070283;27;20043;-73
2023/06/01 06:17:58;;;;;;;6.93;1.02;;;;;;;9.66;49.97;102282.47;5076696;27;20040;-74
2023/06/01 06:20:24;;;;;;;3.78;1.25;;;;;;;9.55;50.11;102284.34;5071882;27;20044;-73
2023/06/01 06:22:51;;;;;;;19.30;1.75;;;;;;;9.52;50.80;102280.03;5061649;27;20508;-71
2023/06/01 06:25:16;;;;;;;2.92;0.95;;;;;;;9.89;49.58;102279.53;5075295;27;20039;-73
2023/06/01 06:27:42;;;;;;;10.60;1.48;;;;;;;9.59;50.57;102275.59;5065655;28;20519;-70
2023/06/01 06:30:11;;;;;;;6.95;0.90;;;;;;;9.62;50.16;102274.69;5077277;27;20610;-72
2023/06/01 06:32:39;;;;;;;4.85;0.68;;;;;;;9.42;50.26;102282.78;5068246;27;20103;-73
2023/06/01 06:35:05;;;;;;;5.57;0.73;;;;;;;9.06;50.67;102290.16;5056341;28;20123;-72
2023/06/01 06:37:30;;;;;;;5.43;0.70;;;;;;;9.36;50.51;102288.94;5084683;27;20249;-74
2023/06/01 06:39:56;;;;;;;5.47;0.63;;;;;;;9.64;50.05;102288.59;5074497;27;20035;-73
2023/06/01 06:42:23;;;;;;;5.50;1.23;;;;;;;9.57;50.24;102282.59;5070301;27;20040;-71
2023/06/01 06:44:49;;;;;;;7.38;0.57;;;;;;;9.57;50.35;102282.59;5086849;27;20039;-73
2023/06/01 06:47:18;;;;;;;2.47;0.40;;;;;;;9.46;50.50;102289.69;5069524;27;21008;-73
2023/06/01 06:49:44;;;;;;;5.78;0.57;;;;;;;9.20;51.11;102280.41;5062102;27;20028;-71
2023/06/01 06:52:10;;;;;;;8.55;0.68;;;;;;;9.71;50.01;102280.63;5063554;28;20124;-71
2023/06/01 06:54:38;;;;;;;4.72;0.68;;;;;;;9.83;49.39;102282.25;5099451;27;20133;-71
2023/06/01 06:57:04;;;;;;;5.65;0.70;;;;;;;10.06;48.65;102292.38;5072560;27;20067;-73
2023/06/01 06:59:30;;;;;;;4.72;0.60;;;;;;;9.56;49.96;102291.28;5067388;27;20466;-72
2023/06/01 07:01:55;;;;;;;5.57;0.57;;;;;;;9.50;50.38;102288.75;5072569;27;20038;-72
2023/06/01 07:04:22;;;;;;;6.82;1.25;;;;;;;9.92;49.99;102276.91;5086594;27;20559;-73
2023/06/01 07:06:47;;;;;;;3.58;0.60;;;;;;;10.21;49.44;102286.00;5059332;27;20032;-70
2023/06/01 07:09:13;;;;;;;10.68;0.60;;;;;;;9.56;51.07;102280.84;5072444;27;20063;-72
2023/06/01 07:11:42;;;;;;;9.00;1.58;;;;;;;9.63;50.39;102276.41;5069555;27;20058;-72
2023/06/01 07:14:08;;;;;;;8.93;0.68;;;;;;;10.16;49.18;102282.63;5071024;27;20039;-72
2023/06/01 07:16:34;;;;;;;3.42;0.70;;;;;;;9.44;51.15;102281.03;5072785;27;22545;-71
2023/06/01 07:19:00;;;;;;;3.97;0.68;;;;;;;9.72;50.56;102287.59;5070771;27;20044;-72
2023/06/01 07:21:25;;;;;;;7.32;0.82;;;;;;;9.80;50.29;102296.19;5072326;27;20040;-71
2023/06/01 07:23:51;;;;;;;4.57;1.23;;;;;;;10.00;48.81;102287.22;5100195;27;20491;-72
2023/06/01 07:26:16;;;;;;;7.88;0.40;;;;;;;9.69;48.93;102290.22;5067054;28;20190;-71
2023/06/01 07:28:42;;;;;;;4.32;0.60;;;;;;;10.02;48.40;102282.84;5068988;27;20104;-71
2023/06/01 07:31:08;;;;;;;6.85;1.45;;;;;;;9.93;48.48;102280.38;5071620;27;20356;-71
2023/06/01 07:33:35;;;;;;;3.85;1.02;;;;;;;9.87;48.89;102280.47;5069046;27;20363;-71
2023/06/01 07:36:03;;;;;;;4.78;0.93;;;;;;;10.00;49.04;102276.78;5072141;27;20063;-71
2023/06/01 07:38:28;;;;;;;8.52;0.73;;;;;;;9.75;49.71;102284.94;5071525;27;20040;-71
2023/06/01 07:40:54;;;;;;;7.20;0.70;;;;;;;10.16;48.67;102287.84;5066719;28;20042;-71
2023/06/01 07:43:20;;;;;;;5.90;0.90;;;;;;;9.43;50.15;102287.09;5073871;27;20127;-70
2023/06/01 07:45:45;;;;;;;7.53;0.47;;;;;;;9.97;49.33;102292.50;5066578;27;20092;-71
2023/06/01 07:48:11;;;;;;;4.72;0.82;;;;;;;10.15;48.98;102286.13;5104582;27;20048;-72
2023/06/01 07:50:37;;;;;;;5.95;0.88;;;;;;;10.35;49.29;102289.28;5070209;27;20031;-71
2023/06/01 07:53:02;;;;;;;2.92;0.45;;;;;;;9.88;49.26;102284.78;5073293;27;20059;-72
2023/06/01 07:55:29;;;;;;;6.28;1.02;;;;;;;10.02;48.80;102288.06;5069599;27;20096;-71
2023/06/01 07:57:54;;;;;;;3.65;1.00;;;;;;;10.04;48.56;102291.53;5072259;27;20126;-70
2023/06/01 08:00:20;;;;;;;6.43;0.70;;;;;;;10.24;47.75;102296.44;5073036;28;20101;-71
2023/06/01 08:02:46;;;;;;;5.57;0.47;;;;;;;10.21;47.95;102294.75;5068464;28;20317;-69
2023/06/01 08:05:12;;;;;;;7.35;1.13;;;;;;;10.49;47.45;102289.03;5073097;28;20032;-69
2023/06/01 08:07:42;;;;;;;3.25;0.90;;;;;;;10.06;47.92;102287.13;5064001;27;20048;-70
2023/06/01 08:10:08;;;;;;;11.88;1.83;;;;;;;10.02;48.24;102281.09;5059356;28;20035;-71
2023/06/01 08:12:35;;;;;;;19.73;1.85;;;;;;;9.87;49.16;102280.47;5068597;28;20052;-71
2023/06/01 08:15:03;;;;;;;12.85;1.67;;;;;;;9.94;48.56;102285.56;5074113;28;20054;-70
2023/06/01 08:17:29;;;;;;;6.47;1.70;;;;;;;9.92;48.74;102281.25;5066600;27;20035;-70
2023/06/01 08:19:56;;;;;;;12.10;2.05;;;;;;;10.28;47.52;102282.44;5076507;27;20036;-70
2023/06/01 08:22:23;;;;;;;9.20;0.80;;;;;;;10.12;47.63;102288.78;5057867;27;20036;-70
2023/06/01 08:24:51;;;;;;;5.35;1.10;;;;;;;10.11;47.70;102287.06;5063168;27;20515;-71
2023/06/01 08:27:23;;;;;;;5.20;1.20;;;;;;;9.93;48.25;102281.22;5068435;27;20066;-70
2023/06/01 08:29:49;;;;;;;10.82;2.67;;;;;;;10.24;47.67;102283.38;5066580;27;20089;-69
2023/06/01 08:32:16;;;;;;;6.43;1.20;;;;;;;10.52;46.72;102275.91;5067454;27;20386;-70
2023/06/01 08:34:46;;;;;;;12.07;1.40;;;;;;;10.70;46.94;102289.56;5068153;27;20043;-69
2023/06/01 08:37:15;;;;;;;8.32;1.13;;;;;;;10.58;47.31;102281.03;5071044;27;20177;-69
2023/06/01 08:39:41;;;;;;;6.13;0.80;;;;;;;10.31;48.07;102281.53;5066477;27;20752;-69
2023/06/01 08:42:07;;;;;;;10.25;1.15;;;;;;;10.31;47.84;102277.16;5070388;27;20039;-69
2023/06/01 08:44:40;;;;;;;7.82;1.42;;;;;;;9.92;47.94;102281.25;5066691;28;20397;-70
2023/06/01 08:47:06;;;;;;;8.50;1.23;;;;;;;10.25;47.76;102268.56;5066760;28;20032;-69
2023/06/01 08:49:34;;;;;;;6.13;0.80;;;;;;;10.82;46.07;102265.84;5068208;28;20180;-69
2023/06/01 08:52:02;;;;;;;14.18;2.88;;;;;;;10.95;45.24;102269.94;5098866;27;20031;-69
2023/06/01 08:54:31;;;;;;;3.97;0.77;;;;;;;10.77;44.98;102262.41;5069961;28;20043;-70
2023/06/01 08:56:59;;;;;;;6.80;1.65;;;;;;;10.81;44.05;102266.69;5062370;28;20537;-70
2023/06/01 08:59:25;;;;;;;6.85;0.90;;;;;;;10.94;44.08;102267.34;5071494;28;20422;-70
2023/06/01 09:01:53;;;;;;;10.15;1.52;;;;;;;10.89;44.41;102264.81;5066149;28;20615;-70
2023/06/01 09:04:19;;;;;;;3.47;0.68;;;;;;;10.91;44.40;102268.28;5067935;27;20043;-70
2023/06/01 09:06:45;;;;;;;2.45;0.95;;;;;;;10.76;44.77;102269.38;5066402;28;20566;-69
2023/06/01 09:09:12;;;;;;;9.27;0.98;;;;;;;10.67;45.25;102279.16;5066306;28;20155;-70
2023/06/01 09:11:38;;;;;;;6.43;1.02;;;;;;;10.48;45.33;102270.75;5067024;28;20051;-70
2023/06/01 09:14:25;;;;;;;4.38;1.45;;;;;;;11.09;45.42;102268.81;5065229;28;20282;-69
2023/06/01 09:16:51;;;;;;;6.88;1.75;;;;;;;10.60;46.25;102267.94;5065681;28;20523;-69
2023/06/01 09:19:21;;;;;;;9.10;1.73;;;;;;;10.67;46.41;102272.19;5066562;28;20044;-70
2023/06/01 09:21:57;;;;;;;4.30;1.63;;;;;;;10.92;45.59;102264.75;5068516;28;20073;-69
2023/06/01 09:24:23;;;;;;;3.63;0.88;;;;;;;11.31;45.14;102262.25;5097409;27;20978;-70
2023/06/01 09:26:49;;;;;;;6.70;1.40;;;;;;;10.95;45.85;102256.88;5064971;28;20035;-70
2023/06/01 09:29:16;;;;;;;8.52;1.23;;;;;;;11.01;46.44;102269.81;5068188;28;20044;-68
2023/06/01 09:31:47;;;;;;;6.72;1.25;;;;;;;10.32;46.51;102252.72;5071218;28;20538;-69
2023/06/01 09:34:18;;;;;;;10.13;1.80;;;;;;;10.02;47.26;102259.34;5067430;28;20086;-70
2023/06/01 09:36:45;;;;;;;10.02;1.77;;;;;;;10.54;46.95;102262.81;5069663;28;20480;-69
2023/06/01 09:39:13;;;;;;;6.45;1.88;;;;;;;10.95;45.48;102256.88;5066448;27;20040;-69
2023/06/01 09:41:58;;;;;;;5.57;0.90;;;;;;;10.77;45.20;102255.44;5067666;27;20036;-70
2023/06/01 09:44:31;;;;;;;4.00;1.25;;;;;;;11.11;44.84;102251.34;5065829;28;20066;-69
2023/06/01 09:46:59;;;;;;;4.50;0.90;;;;;;;10.62;45.06;102250.47;5066582;28;20028;-69
2023/06/01 09:49:30;;;;;;;4.53;0.85;;;;;;;10.81;44.95;102251.00;5064024;28;20576;-69
2023/06/01 09:52:05;;;;;;;7.95;1.85;;;;;;;11.07;44.02;102247.06;5057779;28;20255;-69
2023/06/01 09:54:34;;;;;;;11.90;1.30;;;;;;;11.31;43.36;102257.00;5063859;28;20047;-69
2023/06/01 09:57:01;;;;;;;13.77;2.00;;;;;;;11.42;43.45;102252.41;5065536;28;20036;-69
2023/06/01 09:59:28;;;;;;;12.93;1.48;;;;;;;11.07;44.10;102247.91;5067004;27;20040;-69
2023/06/01 10:01:58;;;;;;;7.28;1.98;;;;;;;11.14;43.93;102249.50;5067716;27;20043;-69
2023/06/01 10:04:26;;;;;;;7.45;1.30;;;;;;;10.64;45.19;102252.19;5069856;27;20071;-69
2023/06/01 10:06:55;;;;;;;12.95;1.98;;;;;;;10.88;44.91;102247.38;5067507;27;20051;-68
2023/06/01 10:09:24;;;;;;;8.00;1.52;;;;;;;10.79;45.69;102247.53;5071281;27;20543;-68
2023/06/01 10:11:53;;;;;;;7.60;1.23;;;;;;;10.33;47.32;102253.63;5064971;27;20055;-70
2023/06/01 10:14:24;;;;;;;3.08;1.08;;;;;;;10.15;48.02;102252.19;5084504;27;20055;-70
2023/06/01 10:16:52;;;;;;;11.15;1.08;;;;;;;10.55;47.36;102241.91;5067534;27;20500;-69
2023/06/01 10:19:20;;;;;;;4.60;1.48;;;;;;;11.14;46.42;102243.41;5075157;27;20046;-69
2023/06/01 10:21:46;;;;;;;10.18;1.33;;;;;;;11.21;46.53;102237.16;5084371;27;20028;-67
2023/06/01 10:24:13;;;;;;;6.47;1.90;;;;;;;11.15;44.92;102239.88;5082342;27;20040;-66
2023/06/01 10:26:51;;;;;;;4.93;1.27;;;;;;;11.15;45.32;102245.13;5075097;27;20032;-69
2023/06/01 10:29:18;;;;;;;12.40;2.20;;;;;;;10.88;45.41;102242.16;5053558;27;20109;-69
2023/06/01 10:31:44;;;;;;;5.80;1.08;;;;;;;10.90;44.95;102245.59;5053527;28;20100;-68
2023/06/01 10:34:11;;;;;;;6.55;1.40;;;;;;;10.39;45.73;102245.66;5045210;28;20049;-68
2023/06/01 10:36:51;;;;;;;2.90;0.85;;;;;;;11.07;44.46;102239.19;5049759;28;20032;-68
2023/06/01 10:39:27;;;;;;;7.03;1.63;;;;;;;11.09;43.41;102240.88;5048147;28;20135;-69
2023/06/01 10:41:58;;;;;;;4.85;0.90;;;;;;;11.31;43.08;102230.84;5032787;28;20524;-68
2023/06/01 10:44:38;;;;;;;7.70;1.05;;;;;;;11.57;42.71;102232.84;5049154;28;20044;-68
2023/06/01 10:47:05;;;;;;;8.38;1.88;;;;;;;11.63;43.11;102231.88;5063259;28;20029;-69
2023/06/01 10:49:49;;;;;;;4.95;0.70;;;;;;;11.68;43.30;102238.72;5048762;28;20268;-67
2023/06/01 10:52:38;;;;;;;3.60;1.08;;;;;;;11.50;43.48;102233.03;5051707;28;20040;-67
2023/06/01 10:55:06;;;;;;;7.95;1.77;;;;;;;11.23;44.35;102238.84;5058947;27;20050;-69
2023/06/01 10:57:33;;;;;;;8.60;0.95;;;;;;;11.16;43.94;102239.00;5064519;27;20237;-69
2023/06/01 11:00:17;;;;;;;8.30;1.17;;;;;;;11.30;43.95;102239.56;5049374;28;20044;-68
2023/06/01 11:02:44;;;;;;;9.15;1.17;;;;;;;11.38;43.42;102235.03;5053647;27;20051;-68
2023/06/01 11:05:47;;;;;;;4.88;0.77;;;;;;;11.76;43.06;102232.47;5067798;28;20490;-67
2023/06/01 11:08:20;;;;;;;8.85;1.00;;;;;;;11.71;42.80;102231.69;5065818;27;20068;-68
2023/06/01 11:10:59;;;;;;;7.10;0.75;;;;;;;11.13;44.39;102232.09;5052093;28;20024;-69
2023/06/01 11:13:39;;;;;;;4.80;1.10;;;;;;;10.87;45.67;102235.22;5031268;28;20876;-68
2023/06/01 11:16:04;;;;;;;8.68;1.17;;;;;;;10.57;45.79;102237.50;5046860;28;20051;-70
2023/06/01 11:18:46;;;;;;;8.65;1.50;;;;;;;10.97;45.83;102234.16;5060055;27;20043;-68
2023/06/01 11:21:20;;;;;;;6.85;1.27;;;;;;;11.19;46.31;102225.84;5069265;27;20134;-67
2023/06/01 11:23:47;;;;;;;13.82;1.40;;;;;;;10.43;46.96;102235.09;5053125;28;20135;-67
2023/06/01 11:26:18;;;;;;;6.20;1.58;;;;;;;10.92;46.25;102235.13;5046288;28;20459;-69
2023/06/01 11:28:48;;;;;;;5.93;1.52;;;;;;;11.44;45.80;102234.91;5063503;27;20139;-68
2023/06/01 11:31:16;;;;;;;13.32;1.52;;;;;;;11.08;46.55;102240.91;5070490;27;20130;-68
2023/06/01 11:33:52;;;;;;;6.45;1.45;;;;;;;11.53;46.07;102238.19;5054664;27;20041;-68